Terminal Aerodrome Forecast
Issued by NWS

Home | Current Version | Previous Version | Text Only | Print | Product List | Glossary On
Versions: 1 2 3 4 5 6 7 8 9 10 11 12 13 14 15
000
FTUS41 KBTV 290740 AAA
TAFSLK
TAF AMD
KSLK 290740Z 2908/3006 25007KT P6SM VCSH OVC025
      TEMPO 2908/2912 1/2SM SN BKN010 OVC020
     FM291200 30006G16KT P6SM VCSH SCT025 BKN030 OVC035
     FM291800 27007KT P6SM BKN035
     FM292100 28006KT P6SM SCT060=

USA.gov is the U.S. government's official web portal to all federal, state and local government web resources and services.